Time;durP1;ratioP1;P1;durP2;ratioP2;P2;SDS_P1;SDS_P2;PMS_P1;PMS_P2;Temp;Humidity;BMP_temperature;BMP_pressure;BME280_temperature;BME280_humidity;BME280_pressure;Samples;Min_cycle;Max_cycle;Signal;HPM_P1;HPM_P2
2021/12/29 00:01:09;;;;;;;;;;;9.70;99.90;;;;;;4980262;28;19987;-69
2021/12/29 00:03:36;;;;;;;;;;;9.70;99.90;;;;;;4985349;28;19926;-70
2021/12/29 00:06:03;;;;;;;;;;;9.70;99.90;;;;;;4983679;28;19925;-70
2021/12/29 00:08:29;;;;;;;;;;;9.70;99.90;;;;;;4984916;28;20031;-71
2021/12/29 00:10:57;;;;;;;;;;;9.70;99.90;;;;;;4986563;28;20599;-71
2021/12/29 00:13:26;;;;;;;;;;;9.70;99.90;;;;;;4986458;28;20056;-68
2021/12/29 00:15:57;;;;;;;;;;;9.70;99.90;;;;;;4980584;28;20011;-71
2021/12/29 00:18:24;;;;;;;;;;;9.70;99.90;;;;;;4982911;28;19934;-69
2021/12/29 00:20:51;;;;;;;;;;;9.70;99.90;;;;;;4984851;28;19948;-70
2021/12/29 00:23:17;;;;;;;;;;;9.70;99.90;;;;;;4985224;28;19934;-71
2021/12/29 00:25:44;;;;;;;;;;;9.60;99.90;;;;;;4982586;28;19926;-70
2021/12/29 00:28:11;;;;;;;;;;;9.60;99.90;;;;;;4987008;28;19977;-70
2021/12/29 00:30:39;;;;;;;;;;;9.60;99.90;;;;;;4979991;28;19961;-70
2021/12/29 00:33:05;;;;;;;;;;;9.60;99.90;;;;;;4979536;28;19926;-70
2021/12/29 00:35:34;;;;;;;;;;;9.60;99.90;;;;;;4983830;28;19930;-71
2021/12/29 00:38:03;;;;;;;;;;;9.60;99.90;;;;;;4985387;28;19969;-71
2021/12/29 00:40:30;;;;;;;;;;;9.60;99.90;;;;;;4986853;28;19933;-70
2021/12/29 00:42:57;;;;;;;;;;;9.50;99.90;;;;;;4984954;28;19926;-71
2021/12/29 00:45:23;;;;;;;;;;;9.60;99.90;;;;;;4986439;28;19940;-70
2021/12/29 00:47:51;;;;;;;;;;;9.60;99.90;;;;;;4986359;28;19926;-75
2021/12/29 00:50:18;;;;;;;;;;;9.50;99.90;;;;;;4988060;28;20025;-71
2021/12/29 00:52:46;;;;;;;;;;;9.50;99.90;;;;;;4986611;28;19932;-70
2021/12/29 00:55:13;;;;;;;;;;;9.60;99.90;;;;;;4985172;28;20025;-70
2021/12/29 00:57:40;;;;;;;;;;;9.50;99.90;;;;;;4982607;28;19937;-70
2021/12/29 01:00:07;;;;;;;;;;;9.50;99.90;;;;;;4983742;28;19932;-70
2021/12/29 01:02:34;;;;;;;;;;;9.50;99.90;;;;;;4979665;28;19926;-70
2021/12/29 01:05:02;;;;;;;;;;;9.50;99.90;;;;;;4981352;28;19925;-70
2021/12/29 01:07:29;;;;;;;;;;;9.50;99.90;;;;;;4980808;28;19933;-70
2021/12/29 01:09:55;;;;;;;;;;;9.50;99.90;;;;;;4983290;28;19941;-70
2021/12/29 01:12:22;;;;;;;;;;;9.50;99.90;;;;;;4980724;28;20013;-71
2021/12/29 01:14:54;;;;;;;;;;;9.50;99.90;;;;;;4986672;28;19948;-69
2021/12/29 01:17:21;;;;;;;;;;;9.40;99.90;;;;;;4979411;28;19964;-70
2021/12/29 01:19:49;;;;;;;;;;;9.40;99.90;;;;;;4981434;28;19949;-70
2021/12/29 01:22:17;;;;;;;;;;;9.40;99.90;;;;;;4982572;28;19933;-70
2021/12/29 01:24:46;;;;;;;;;;;9.40;99.90;;;;;;4982924;28;19941;-69
2021/12/29 01:27:13;;;;;;;;;;;9.50;99.90;;;;;;4984759;28;19957;-70
2021/12/29 01:29:39;;;;;;;;;;;9.50;99.90;;;;;;4985945;28;19940;-70
2021/12/29 01:32:06;;;;;;;;;;;9.40;99.90;;;;;;4985278;28;20021;-70
2021/12/29 01:34:33;;;;;;;;;;;9.40;99.90;;;;;;4984126;28;19934;-69
2021/12/29 01:37:00;;;;;;;;;;;9.40;99.90;;;;;;4985712;28;19925;-70
2021/12/29 01:39:28;;;;;;;;;;;9.40;99.90;;;;;;4981770;28;19932;-70
2021/12/29 01:41:56;;;;;;;;;;;9.40;99.90;;;;;;4985887;28;20009;-71
2021/12/29 01:44:24;;;;;;;;;;;9.40;99.90;;;;;;4978175;28;20300;-70
2021/12/29 01:46:51;;;;;;;;;;;9.40;99.90;;;;;;4979389;28;19933;-69
2021/12/29 01:49:18;;;;;;;;;;;9.40;99.90;;;;;;4982903;28;20400;-69
2021/12/29 01:51:50;;;;;;;;;;;9.30;99.90;;;;;;4983993;28;19933;-69
2021/12/29 01:54:23;;;;;;;;;;;9.40;99.90;;;;;;4985698;28;19932;-69
2021/12/29 01:56:53;;;;;;;;;;;9.40;99.90;;;;;;4983795;28;20008;-69
2021/12/29 01:59:19;;;;;;;;;;;9.40;99.90;;;;;;4982246;28;20017;-70
2021/12/29 02:01:46;;;;;;;;;;;9.40;99.90;;;;;;4988620;28;20025;-69
2021/12/29 02:04:13;;;;;;;;;;;9.40;99.90;;;;;;4984892;28;20310;-69
2021/12/29 02:06:39;;;;;;;;;;;9.40;99.90;;;;;;4984795;28;19930;-71
2021/12/29 02:09:07;;;;;;;;;;;9.40;99.90;;;;;;4978210;28;19932;-70
2021/12/29 02:11:34;;;;;;;;;;;9.40;99.90;;;;;;4980035;28;20060;-70
2021/12/29 02:14:03;;;;;;;;;;;9.40;99.90;;;;;;4976489;28;19926;-70
2021/12/29 02:16:30;;;;;;;;;;;9.40;99.90;;;;;;4982887;28;20032;-70
2021/12/29 02:18:58;;;;;;;;;;;9.40;99.90;;;;;;4980421;28;19961;-70
2021/12/29 02:21:27;;;;;;;;;;;9.40;99.90;;;;;;4980939;28;22273;-70
2021/12/29 02:24:16;;;;;;;;;;;9.40;99.90;;;;;;4982983;28;19948;-71
2021/12/29 02:26:44;;;;;;;;;;;9.40;99.90;;;;;;4983378;28;19969;-70
2021/12/29 02:29:12;;;;;;;;;;;9.40;99.90;;;;;;4978599;28;20009;-69
2021/12/29 02:31:39;;;;;;;;;;;9.40;99.90;;;;;;4979047;28;20303;-70
2021/12/29 02:34:07;;;;;;;;;;;9.40;99.90;;;;;;4977287;28;20286;-70
2021/12/29 02:36:35;;;;;;;;;;;9.40;99.90;;;;;;4979809;28;19937;-70
2021/12/29 02:39:04;;;;;;;;;;;9.40;99.90;;;;;;4981199;28;19932;-72
2021/12/29 02:41:31;;;;;;;;;;;9.40;99.90;;;;;;4980927;28;20013;-70
2021/12/29 02:44:00;;;;;;;;;;;9.40;99.90;;;;;;4980856;28;20006;-70
2021/12/29 02:46:27;;;;;;;;;;;9.40;99.90;;;;;;4983525;28;19933;-69
2021/12/29 02:48:59;;;;;;;;;;;9.40;99.90;;;;;;4986429;28;19930;-69
2021/12/29 02:51:26;;;;;;;;;;;9.40;99.90;;;;;;4983698;28;19964;-70
2021/12/29 02:53:54;;;;;;;;;;;9.40;99.90;;;;;;4988069;28;19956;-70
2021/12/29 02:56:20;;;;;;;;;;;9.40;99.90;;;;;;4986831;28;19934;-69
2021/12/29 02:58:47;;;;;;;;;;;9.40;99.90;;;;;;4985102;28;19936;-69
2021/12/29 03:01:15;;;;;;;;;;;9.40;99.90;;;;;;4985590;28;20016;-70
2021/12/29 03:03:42;;;;;;;;;;;9.40;99.90;;;;;;4982683;28;19934;-70
2021/12/29 03:06:09;;;;;;;;;;;9.40;99.90;;;;;;4984801;28;20399;-70
2021/12/29 03:08:36;;;;;;;;;;;9.40;99.90;;;;;;4987456;28;20388;-70
2021/12/29 03:11:04;;;;;;;;;;;9.40;99.90;;;;;;4988626;28;19930;-70
2021/12/29 03:13:31;;;;;;;;;;;9.40;99.90;;;;;;4982466;28;19934;-70
2021/12/29 03:15:58;;;;;;;;;;;9.40;99.90;;;;;;4981261;28;19984;-70
2021/12/29 03:18:25;;;;;;;;;;;9.40;99.90;;;;;;4983949;28;19926;-70
2021/12/29 03:20:51;;;;;;;;;;;9.40;99.90;;;;;;4989666;28;19930;-70
2021/12/29 03:23:18;;;;;;;;;;;9.40;99.90;;;;;;4989088;28;19926;-68
2021/12/29 03:25:47;;;;;;;;;;;9.40;99.90;;;;;;4993929;28;19925;-68
2021/12/29 03:28:16;;;;;;;;;;;9.40;99.90;;;;;;4990089;28;19984;-68
2021/12/29 03:30:43;;;;;;;;;;;9.40;99.90;;;;;;4987717;28;19965;-69
2021/12/29 03:33:10;;;;;;;;;;;9.40;99.90;;;;;;4994413;28;19925;-70
2021/12/29 03:35:38;;;;;;;;;;;9.40;99.90;;;;;;4989263;28;19930;-69
2021/12/29 03:38:06;;;;;;;;;;;9.40;99.90;;;;;;4983925;28;19936;-69
2021/12/29 03:40:35;;;;;;;;;;;9.40;99.90;;;;;;4990696;28;20500;-70
2021/12/29 03:43:02;;;;;;;;;;;9.40;99.90;;;;;;4990308;28;19956;-70
2021/12/29 03:45:30;;;;;;;;;;;9.40;99.90;;;;;;4989131;28;19926;-70
2021/12/29 03:47:57;;;;;;;;;;;9.40;99.90;;;;;;4987450;28;19926;-69
2021/12/29 03:50:23;;;;;;;;;;;9.30;99.90;;;;;;4987855;28;20012;-69
2021/12/29 03:52:50;;;;;;;;;;;9.40;99.90;;;;;;4983194;28;19934;-70
2021/12/29 03:55:17;;;;;;;;;;;9.40;99.90;;;;;;4989415;28;19925;-69
2021/12/29 03:57:43;;;;;;;;;;;9.30;99.90;;;;;;4988557;28;20021;-69
2021/12/29 04:00:12;;;;;;;;;;;9.30;99.90;;;;;;4991743;28;20380;-70
2021/12/29 04:02:40;;;;;;;;;;;9.30;99.90;;;;;;4982212;28;19933;-70
2021/12/29 04:05:08;;;;;;;;;;;9.30;99.90;;;;;;4993186;28;19933;-70
2021/12/29 04:07:34;;;;;;;;;;;9.30;99.90;;;;;;4990702;28;21572;-73
2021/12/29 04:10:01;;;;;;;;;;;9.30;99.90;;;;;;4995064;28;20389;-71
2021/12/29 04:12:28;;;;;;;;;;;9.30;99.90;;;;;;4990673;28;19926;-69
2021/12/29 04:14:54;;;;;;;;;;;9.30;99.90;;;;;;4989981;28;19934;-69
2021/12/29 04:17:26;;;;;;;;;;;9.30;99.90;;;;;;4984300;28;19926;-69
2021/12/29 04:22:38;;;;;;;;;;;9.40;99.90;;;;;;4989677;28;19980;-70
2021/12/29 04:25:05;;;;;;;;;;;9.40;99.90;;;;;;4983463;28;19926;-70
2021/12/29 04:27:32;;;;;;;;;;;9.40;99.90;;;;;;4991602;28;19976;-70
2021/12/29 04:29:58;;;;;;;;;;;9.40;99.90;;;;;;4987784;28;19926;-71
2021/12/29 04:32:25;;;;;;;;;;;9.40;99.90;;;;;;4986802;28;20004;-75
2021/12/29 04:34:53;;;;;;;;;;;9.30;99.90;;;;;;4988197;28;19925;-71
2021/12/29 04:37:20;;;;;;;;;;;9.40;99.90;;;;;;4986177;28;19926;-70
2021/12/29 04:39:46;;;;;;;;;;;9.40;99.90;;;;;;4983511;28;19936;-70
2021/12/29 04:42:13;;;;;;;;;;;9.30;99.90;;;;;;4984889;28;19926;-70
2021/12/29 04:44:40;;;;;;;;;;;9.30;99.90;;;;;;4990536;28;19995;-70
2021/12/29 04:47:08;;;;;;;;;;;9.30;99.90;;;;;;4980125;28;19934;-71
2021/12/29 04:49:40;;;;;;;;;;;9.30;99.90;;;;;;4981791;28;19926;-75
2021/12/29 04:52:10;;;;;;;;;;;9.30;99.90;;;;;;4986110;28;19953;-73
2021/12/29 04:54:37;;;;;;;;;;;9.30;99.90;;;;;;4984142;28;19999;-70
2021/12/29 04:57:04;;;;;;;;;;;9.30;99.90;;;;;;4987458;28;20286;-70
2021/12/29 04:59:31;;;;;;;;;;;9.30;99.90;;;;;;4991520;28;19925;-70
2021/12/29 05:01:59;;;;;;;;;;;9.30;99.90;;;;;;4987143;28;19926;-69
2021/12/29 05:04:32;;;;;;;;;;;9.30;99.90;;;;;;4974902;28;19934;-70
2021/12/29 05:09:45;;;;;;;;;;;9.30;99.90;;;;;;4989160;28;19949;-69
2021/12/29 05:12:11;;;;;;;;;;;9.30;99.90;;;;;;4987798;28;19926;-70
2021/12/29 05:14:38;;;;;;;;;;;9.30;99.90;;;;;;4991094;28;19969;-71
2021/12/29 05:17:05;;;;;;;;;;;9.20;99.90;;;;;;4985387;28;19926;-70
2021/12/29 05:19:32;;;;;;;;;;;9.20;99.90;;;;;;4977047;28;19926;-70
2021/12/29 05:21:59;;;;;;;;;;;9.20;99.90;;;;;;4982502;28;19926;-70
2021/12/29 05:24:25;;;;;;;;;;;9.10;99.90;;;;;;4987014;28;20001;-70
2021/12/29 05:26:53;;;;;;;;;;;9.10;99.90;;;;;;4981810;28;19926;-70
2021/12/29 05:29:20;;;;;;;;;;;9.10;99.90;;;;;;4982457;28;20336;-70
2021/12/29 05:31:47;;;;;;;;;;;9.10;99.90;;;;;;4987038;28;20464;-70
2021/12/29 05:34:13;;;;;;;;;;;9.10;99.90;;;;;;4976537;28;19926;-70
2021/12/29 05:36:40;;;;;;;;;;;9.10;99.90;;;;;;4984297;28;20400;-70
2021/12/29 05:39:10;;;;;;;;;;;9.10;99.90;;;;;;4988043;28;19932;-70
2021/12/29 05:41:36;;;;;;;;;;;9.20;99.90;;;;;;4978810;28;20020;-70
2021/12/29 05:44:05;;;;;;;;;;;9.10;99.90;;;;;;4987331;28;19936;-71
2021/12/29 05:46:31;;;;;;;;;;;9.00;99.90;;;;;;4988359;28;19969;-70
2021/12/29 05:48:58;;;;;;;;;;;9.00;99.90;;;;;;4989378;28;19932;-69
2021/12/29 05:51:25;;;;;;;;;;;9.00;99.90;;;;;;4986070;28;20409;-70
2021/12/29 05:53:51;;;;;;;;;;;9.00;99.90;;;;;;4982272;28;20440;-70
2021/12/29 05:56:18;;;;;;;;;;;9.00;99.90;;;;;;4987981;28;20389;-71
2021/12/29 05:58:45;;;;;;;;;;;8.90;99.90;;;;;;4978392;28;21794;-70
2021/12/29 06:01:13;;;;;;;;;;;8.90;99.90;;;;;;4984734;28;20385;-69
2021/12/29 06:03:40;;;;;;;;;;;8.90;99.90;;;;;;4985647;28;19925;-70
2021/12/29 06:06:07;;;;;;;;;;;8.90;99.90;;;;;;4987638;28;19926;-69
2021/12/29 06:08:33;;;;;;;;;;;8.90;99.90;;;;;;4986121;28;19926;-69
2021/12/29 06:11:00;;;;;;;;;;;8.80;99.90;;;;;;4980754;28;19933;-70
2021/12/29 06:13:27;;;;;;;;;;;8.80;99.90;;;;;;4984794;28;19926;-70
2021/12/29 06:15:54;;;;;;;;;;;8.80;99.90;;;;;;4982049;28;19925;-70
2021/12/29 06:18:22;;;;;;;;;;;8.70;99.90;;;;;;4989407;28;20028;-70
2021/12/29 06:20:48;;;;;;;;;;;8.70;99.90;;;;;;4989675;28;19940;-70
2021/12/29 06:23:15;;;;;;;;;;;8.70;99.90;;;;;;4987142;28;19984;-70
2021/12/29 06:25:42;;;;;;;;;;;8.80;99.90;;;;;;4986121;28;19964;-70
2021/12/29 06:28:09;;;;;;;;;;;8.80;99.90;;;;;;4988959;28;19932;-70
2021/12/29 06:30:35;;;;;;;;;;;8.70;99.90;;;;;;4989635;28;19926;-70
2021/12/29 06:33:02;;;;;;;;;;;8.80;99.90;;;;;;4988087;28;20006;-70
2021/12/29 06:35:30;;;;;;;;;;;8.70;99.90;;;;;;4990651;28;19926;-70
2021/12/29 06:37:57;;;;;;;;;;;8.70;99.90;;;;;;4986897;28;19938;-70
2021/12/29 06:40:24;;;;;;;;;;;8.70;99.90;;;;;;4993918;28;21741;-70
2021/12/29 06:42:50;;;;;;;;;;;8.70;99.90;;;;;;4983373;28;20424;-70
2021/12/29 06:45:17;;;;;;;;;;;8.60;99.90;;;;;;4986463;28;19929;-72
2021/12/29 06:47:44;;;;;;;;;;;8.60;99.90;;;;;;4988688;28;19936;-71
2021/12/29 06:50:10;;;;;;;;;;;8.60;99.90;;;;;;4987749;28;19973;-71
2021/12/29 06:52:39;;;;;;;;;;;8.60;99.90;;;;;;4988833;28;20013;-70
2021/12/29 06:55:07;;;;;;;;;;;8.60;99.90;;;;;;4991725;28;19930;-69
2021/12/29 06:57:33;;;;;;;;;;;8.60;99.90;;;;;;4986790;28;19932;-69
2021/12/29 07:00:00;;;;;;;;;;;8.50;99.90;;;;;;4987871;28;19969;-70
2021/12/29 07:02:27;;;;;;;;;;;8.50;99.90;;;;;;4988894;28;19932;-70
2021/12/29 07:04:53;;;;;;;;;;;8.40;99.90;;;;;;4985986;28;20436;-70
2021/12/29 07:07:20;;;;;;;;;;;8.40;99.90;;;;;;4985353;28;19929;-70
2021/12/29 07:09:48;;;;;;;;;;;8.40;99.90;;;;;;4993128;28;19930;-71
2021/12/29 07:12:14;;;;;;;;;;;8.40;99.90;;;;;;4988221;28;19927;-70
2021/12/29 07:14:41;;;;;;;;;;;8.40;99.90;;;;;;4990980;28;19926;-70
2021/12/29 07:17:08;;;;;;;;;;;8.30;99.90;;;;;;4987051;28;19926;-70
2021/12/29 07:19:35;;;;;;;;;;;8.30;99.90;;;;;;4984894;28;20353;-68
2021/12/29 07:22:08;;;;;;;;;;;8.30;99.90;;;;;;4985118;28;20005;-68
2021/12/29 07:24:37;;;;;;;;;;;8.30;99.90;;;;;;4985016;28;19925;-70
2021/12/29 07:27:06;;;;;;;;;;;8.30;99.90;;;;;;4982230;28;20009;-68
2021/12/29 07:29:32;;;;;;;;;;;8.30;99.90;;;;;;4986725;28;20008;-70
2021/12/29 07:32:01;;;;;;;;;;;8.30;99.90;;;;;;4988068;28;20382;-68
2021/12/29 07:34:28;;;;;;;;;;;8.30;99.90;;;;;;4983384;28;19961;-69
2021/12/29 07:36:55;;;;;;;;;;;8.30;99.90;;;;;;4987965;28;20025;-68
2021/12/29 07:39:22;;;;;;;;;;;8.30;99.90;;;;;;4985274;28;19925;-68
2021/12/29 07:41:49;;;;;;;;;;;8.30;99.90;;;;;;4986557;28;20387;-68
2021/12/29 07:44:18;;;;;;;;;;;8.30;99.90;;;;;;4980146;28;20443;-68
2021/12/29 07:46:46;;;;;;;;;;;8.30;99.90;;;;;;4983353;28;19926;-69
2021/12/29 07:49:12;;;;;;;;;;;8.30;99.90;;;;;;4978763;28;19964;-69
2021/12/29 07:51:40;;;;;;;;;;;8.30;99.90;;;;;;4976284;28;19936;-68
2021/12/29 07:54:07;;;;;;;;;;;8.30;99.90;;;;;;4979477;28;19944;-69
2021/12/29 07:56:34;;;;;;;;;;;8.20;99.90;;;;;;4985520;28;20433;-69
2021/12/29 07:59:01;;;;;;;;;;;8.20;99.90;;;;;;4984269;28;19932;-69
2021/12/29 08:01:29;;;;;;;;;;;8.20;99.90;;;;;;4986440;28;20030;-69
2021/12/29 08:03:55;;;;;;;;;;;8.20;99.90;;;;;;4981381;28;19930;-69
2021/12/29 08:06:22;;;;;;;;;;;8.20;99.90;;;;;;4984288;28;19948;-69
2021/12/29 08:08:49;;;;;;;;;;;8.10;99.90;;;;;;4984863;28;19926;-68
2021/12/29 08:11:19;;;;;;;;;;;8.10;99.90;;;;;;4985031;28;19933;-71
2021/12/29 08:13:46;;;;;;;;;;;8.10;99.90;;;;;;4983917;28;19926;-70
2021/12/29 08:16:12;;;;;;;;;;;8.20;99.90;;;;;;4984707;28;19932;-69
2021/12/29 08:18:40;;;;;;;;;;;8.20;99.90;;;;;;4988802;28;19933;-69
2021/12/29 08:21:07;;;;;;;;;;;8.10;99.90;;;;;;4983937;28;19965;-69
2021/12/29 08:23:34;;;;;;;;;;;8.10;99.90;;;;;;4981553;28;19934;-69
2021/12/29 08:26:01;;;;;;;;;;;8.10;99.90;;;;;;4985884;28;20044;-69
2021/12/29 08:28:27;;;;;;;;;;;8.10;99.90;;;;;;4983261;28;19941;-69
2021/12/29 08:30:55;;;;;;;;;;;8.20;99.90;;;;;;4980685;28;20021;-70
2021/12/29 08:33:22;;;;;;;;;;;8.20;99.90;;;;;;4974639;28;19941;-69
2021/12/29 08:35:51;;;;;;;;;;;8.20;99.90;;;;;;4970821;28;19973;-69
2021/12/29 08:38:17;;;;;;;;;;;8.20;99.90;;;;;;4973026;28;19940;-70
2021/12/29 08:40:44;;;;;;;;;;;8.20;99.90;;;;;;4969759;28;20296;-70
2021/12/29 08:43:11;;;;;;;;;;;8.20;99.90;;;;;;4971092;28;19934;-70
2021/12/29 08:45:42;;;;;;;;;;;8.20;99.90;;;;;;4970002;28;19944;-70
2021/12/29 08:48:09;;;;;;;;;;;8.20;99.90;;;;;;4971959;28;19934;-70
2021/12/29 08:50:36;;;;;;;;;;;8.20;99.90;;;;;;4963742;28;20506;-69
2021/12/29 08:53:05;;;;;;;;;;;8.30;99.90;;;;;;4970131;28;19940;-69
2021/12/29 08:55:33;;;;;;;;;;;8.30;99.90;;;;;;4969507;28;20048;-68
2021/12/29 08:58:00;;;;;;;;;;;8.40;99.90;;;;;;4972371;28;19934;-69
2021/12/29 09:00:27;;;;;;;;;;;8.40;99.90;;;;;;4972569;28;19936;-69
2021/12/29 09:02:54;;;;;;;;;;;8.40;99.90;;;;;;4972802;28;20397;-70
2021/12/29 09:05:21;;;;;;;;;;;8.50;99.90;;;;;;4972128;28;19934;-70
2021/12/29 09:07:48;;;;;;;;;;;8.50;99.90;;;;;;4970971;28;20033;-69
2021/12/29 09:10:17;;;;;;;;;;;8.50;99.90;;;;;;4970750;28;19926;-70
2021/12/29 09:12:47;;;;;;;;;;;8.50;99.90;;;;;;4970271;28;20478;-70
2021/12/29 09:15:15;;;;;;;;;;;8.60;99.90;;;;;;4970735;28;19934;-70
2021/12/29 09:17:41;;;;;;;;;;;8.60;99.90;;;;;;4970008;28;22252;-69
2021/12/29 09:20:13;;;;;;;;;;;8.70;99.90;;;;;;4974838;28;20009;-69
2021/12/29 09:22:40;;;;;;;;;;;8.70;99.90;;;;;;4973663;28;20453;-71
2021/12/29 09:25:08;;;;;;;;;;;8.70;99.90;;;;;;4973544;28;19936;-70
2021/12/29 09:27:36;;;;;;;;;;;8.70;99.90;;;;;;4982209;28;19933;-71
2021/12/29 09:30:13;;;;;;;;;;;8.70;99.90;;;;;;4981621;28;19932;-71
2021/12/29 09:32:40;;;;;;;;;;;8.70;99.90;;;;;;4978065;28;20468;-71
2021/12/29 09:35:07;;;;;;;;;;;8.80;99.90;;;;;;4982133;28;19965;-70
2021/12/29 09:37:34;;;;;;;;;;;8.80;99.90;;;;;;4981306;28;20309;-70
2021/12/29 09:40:00;;;;;;;;;;;8.90;99.90;;;;;;4983331;28;19926;-70
2021/12/29 09:42:27;;;;;;;;;;;8.90;99.90;;;;;;4979978;28;20352;-69
2021/12/29 09:44:55;;;;;;;;;;;8.90;99.90;;;;;;4983017;28;20021;-69
2021/12/29 09:47:22;;;;;;;;;;;8.90;99.90;;;;;;4983085;28;20029;-69
2021/12/29 09:49:49;;;;;;;;;;;9.00;99.90;;;;;;4982165;28;19977;-69
2021/12/29 09:52:15;;;;;;;;;;;9.00;99.90;;;;;;4977514;28;19925;-69
2021/12/29 09:54:42;;;;;;;;;;;9.10;99.90;;;;;;4980177;28;19956;-69
2021/12/29 09:57:09;;;;;;;;;;;9.10;99.90;;;;;;4980228;28;19926;-71
2021/12/29 09:59:36;;;;;;;;;;;9.20;99.90;;;;;;4982231;28;19961;-71
2021/12/29 10:02:04;;;;;;;;;;;9.10;99.90;;;;;;4980242;28;20420;-69
2021/12/29 10:04:34;;;;;;;;;;;9.20;99.90;;;;;;4974146;28;20367;-69
2021/12/29 10:07:10;;;;;;;;;;;9.20;99.90;;;;;;4979303;28;19945;-69
2021/12/29 10:09:37;;;;;;;;;;;9.10;99.90;;;;;;4975957;28;20443;-70
2021/12/29 10:12:07;;;;;;;;;;;9.20;99.90;;;;;;4984464;28;19925;-70
2021/12/29 10:14:34;;;;;;;;;;;9.20;99.90;;;;;;4982429;28;20016;-70
2021/12/29 10:17:01;;;;;;;;;;;9.20;99.90;;;;;;4982115;28;19925;-71
2021/12/29 10:19:35;;;;;;;;;;;9.20;99.90;;;;;;4999873;23;20010;-72
2021/12/29 10:22:02;;;;;;;;;;;9.20;99.90;;;;;;5001317;28;19926;-69
2021/12/29 10:24:28;;;;;;;;;;;9.20;99.90;;;;;;4998791;28;19940;-70
2021/12/29 10:26:57;;;;;;;;;;;9.20;99.90;;;;;;5001612;28;19935;-70
2021/12/29 10:29:23;;;;;;;;;;;9.20;99.90;;;;;;4984024;28;19926;-69
2021/12/29 10:31:51;;;;;;;;;;;9.30;99.90;;;;;;5001118;28;19937;-70
2021/12/29 10:34:19;;;;;;;;;;;9.30;99.90;;;;;;5003970;28;20024;-69
2021/12/29 10:36:48;;;;;;;;;;;9.40;99.90;;;;;;4999817;28;19925;-74
2021/12/29 10:39:16;;;;;;;;;;;9.30;99.90;;;;;;5001775;28;20020;-70
2021/12/29 10:41:47;;;;;;;;;;;9.30;99.90;;;;;;5002169;28;20284;-70
2021/12/29 10:44:14;;;;;;;;;;;9.30;99.90;;;;;;5001731;28;20016;-70
2021/12/29 10:46:41;;;;;;;;;;;9.40;99.90;;;;;;4989348;28;19942;-71
2021/12/29 10:49:09;;;;;;;;;;;9.40;99.90;;;;;;4990329;28;20459;-70
2021/12/29 10:51:36;;;;;;;;;;;9.40;99.90;;;;;;4992014;28;19940;-70
2021/12/29 10:54:09;;;;;;;;;;;9.50;99.90;;;;;;4996478;28;19933;-71
2021/12/29 10:56:37;;;;;;;;;;;9.50;99.90;;;;;;4989526;28;20430;-71
2021/12/29 10:59:18;;;;;;;;;;;9.60;99.90;;;;;;4991310;28;19936;-70
2021/12/29 11:01:45;;;;;;;;;;;9.70;99.90;;;;;;4993385;28;20016;-68
2021/12/29 11:04:13;;;;;;;;;;;9.70;99.90;;;;;;4995163;28;22055;-70
2021/12/29 11:06:41;;;;;;;;;;;9.60;99.90;;;;;;4995991;28;19929;-71
2021/12/29 11:09:09;;;;;;;;;;;9.60;99.90;;;;;;5000702;28;19929;-70
2021/12/29 11:11:36;;;;;;;;;;;9.70;99.90;;;;;;4999240;28;19933;-70
2021/12/29 11:14:06;;;;;;;;;;;9.70;99.90;;;;;;5008241;28;19929;-69
2021/12/29 11:16:33;;;;;;;;;;;9.70;99.90;;;;;;5003663;28;19925;-69
2021/12/29 11:19:00;;;;;;;;;;;9.80;99.90;;;;;;5006203;28;20012;-70
2021/12/29 11:21:27;;;;;;;;;;;9.90;99.90;;;;;;5003314;28;19925;-69
2021/12/29 11:23:54;;;;;;;;;;;9.90;99.90;;;;;;5002450;28;20380;-69
2021/12/29 11:26:29;;;;;;;;;;;9.80;99.90;;;;;;5003331;28;19948;-69
2021/12/29 11:29:03;;;;;;;;;;;9.90;99.90;;;;;;5005848;28;19936;-70
2021/12/29 11:31:33;;;;;;;;;;;9.90;99.90;;;;;;5004931;28;20499;-69
2021/12/29 11:34:11;;;;;;;;;;;9.90;99.90;;;;;;5002962;28;19925;-69
2021/12/29 11:36:38;;;;;;;;;;;9.90;99.90;;;;;;5000205;28;20252;-69
2021/12/29 11:39:05;;;;;;;;;;;9.90;99.90;;;;;;5002596;28;20303;-69
2021/12/29 11:41:33;;;;;;;;;;;9.90;99.90;;;;;;4990724;28;19935;-69
2021/12/29 11:43:59;;;;;;;;;;;9.90;99.90;;;;;;4991988;28;19933;-70
2021/12/29 11:46:26;;;;;;;;;;;9.90;99.90;;;;;;4992684;28;19925;-70
2021/12/29 11:48:53;;;;;;;;;;;9.90;99.90;;;;;;4990947;28;19940;-70
2021/12/29 11:51:30;;;;;;;;;;;10.00;99.90;;;;;;4993679;28;19925;-70
2021/12/29 11:54:02;;;;;;;;;;;10.00;99.90;;;;;;4990981;28;19939;-70
2021/12/29 11:56:29;;;;;;;;;;;10.00;99.90;;;;;;4990629;28;19932;-71
2021/12/29 11:59:04;;;;;;;;;;;10.00;99.90;;;;;;4989229;28;19940;-68
2021/12/29 12:01:32;;;;;;;;;;;10.00;99.90;;;;;;4991617;28;19925;-69
2021/12/29 12:03:59;;;;;;;;;;;10.10;99.90;;;;;;4995737;28;20016;-69
2021/12/29 12:06:27;;;;;;;;;;;10.00;99.90;;;;;;4995889;28;19933;-69
2021/12/29 12:09:05;;;;;;;;;;;10.00;99.90;;;;;;4996096;28;20052;-75
2021/12/29 12:11:32;;;;;;;;;;;10.00;99.90;;;;;;4993511;28;20408;-69
2021/12/29 12:14:02;;;;;;;;;;;10.10;99.90;;;;;;4991283;28;19929;-70
2021/12/29 12:16:47;;;;;;;;;;;10.00;99.90;;;;;;4992410;28;20297;-71
2021/12/29 12:19:17;;;;;;;;;;;10.10;99.90;;;;;;4996363;28;20120;-70
2021/12/29 12:22:02;;;;;;;;;;;10.00;99.90;;;;;;4991736;28;20404;-71
2021/12/29 12:24:31;;;;;;;;;;;10.10;99.90;;;;;;4987962;28;20015;-71
2021/12/29 12:27:00;;;;;;;;;;;10.10;99.90;;;;;;4988640;28;20072;-70
2021/12/29 12:29:29;;;;;;;;;;;10.10;99.90;;;;;;4991364;28;19933;-70
2021/12/29 12:32:00;;;;;;;;;;;10.00;99.90;;;;;;5001135;28;19925;-70
2021/12/29 12:34:26;;;;;;;;;;;9.90;99.90;;;;;;5005874;28;20385;-71
2021/12/29 12:36:53;;;;;;;;;;;9.90;99.90;;;;;;5007303;28;19937;-72
2021/12/29 12:39:21;;;;;;;;;;;9.90;99.90;;;;;;5007956;28;19926;-72
2021/12/29 12:41:49;;;;;;;;;;;9.90;99.90;;;;;;5005403;28;20008;-71
2021/12/29 12:44:19;;;;;;;;;;;9.80;99.90;;;;;;5005552;28;20023;-70
2021/12/29 12:46:53;;;;;;;;;;;9.80;99.90;;;;;;4992013;28;19964;-72
2021/12/29 12:49:21;;;;;;;;;;;9.80;99.90;;;;;;4989949;28;20075;-71
2021/12/29 12:51:55;;;;;;;;;;;9.80;99.90;;;;;;4992437;28;19939;-71
2021/12/29 12:54:23;;;;;;;;;;;9.80;99.90;;;;;;4989003;28;19941;-71
2021/12/29 12:56:52;;;;;;;;;;;9.70;99.90;;;;;;4992609;28;20024;-70
2021/12/29 12:59:19;;;;;;;;;;;9.70;99.90;;;;;;4992174;28;20380;-70
2021/12/29 13:01:52;;;;;;;;;;;9.70;99.90;;;;;;4988881;28;20024;-70
2021/12/29 13:04:19;;;;;;;;;;;9.70;99.90;;;;;;4990477;28;19929;-70
2021/12/29 13:06:51;;;;;;;;;;;9.80;99.90;;;;;;4992869;28;19926;-71
2021/12/29 13:09:19;;;;;;;;;;;9.80;99.90;;;;;;4991380;28;20069;-71
2021/12/29 13:11:46;;;;;;;;;;;9.80;99.90;;;;;;4990191;28;19980;-71
2021/12/29 13:14:13;;;;;;;;;;;9.80;99.90;;;;;;4990866;28;20424;-70
2021/12/29 13:16:44;;;;;;;;;;;9.80;99.90;;;;;;4991742;28;19925;-70
2021/12/29 13:19:13;;;;;;;;;;;9.80;99.90;;;;;;4993422;28;19933;-71
2021/12/29 13:21:42;;;;;;;;;;;9.80;99.90;;;;;;4997188;28;20462;-70
2021/12/29 13:24:12;;;;;;;;;;;9.80;99.90;;;;;;4988718;28;20027;-75
2021/12/29 13:26:40;;;;;;;;;;;9.90;99.90;;;;;;4991063;28;19960;-69
2021/12/29 13:29:08;;;;;;;;;;;9.80;99.90;;;;;;4991203;28;20340;-71
2021/12/29 13:31:35;;;;;;;;;;;9.80;99.90;;;;;;4991562;28;19934;-69
2021/12/29 13:34:02;;;;;;;;;;;9.80;99.90;;;;;;4990784;28;19959;-69
2021/12/29 13:36:31;;;;;;;;;;;9.80;99.90;;;;;;4990663;28;20016;-71
2021/12/29 13:38:58;;;;;;;;;;;9.80;99.90;;;;;;4991501;28;19937;-71
2021/12/29 13:41:27;;;;;;;;;;;9.80;99.90;;;;;;4989509;28;19926;-71
2021/12/29 13:43:55;;;;;;;;;;;9.80;99.90;;;;;;4987171;28;20038;-70
2021/12/29 13:46:23;;;;;;;;;;;9.80;99.90;;;;;;4989382;28;19983;-70
2021/12/29 13:48:51;;;;;;;;;;;9.80;99.90;;;;;;4990258;28;19972;-70
2021/12/29 13:51:19;;;;;;;;;;;9.80;99.90;;;;;;4990709;28;20719;-70
2021/12/29 13:53:48;;;;;;;;;;;9.90;99.90;;;;;;4987011;28;19929;-70
2021/12/29 13:56:16;;;;;;;;;;;9.90;99.90;;;;;;4990625;28;20296;-70
2021/12/29 13:58:43;;;;;;;;;;;9.90;99.90;;;;;;4991146;28;20281;-70
2021/12/29 14:01:10;;;;;;;;;;;9.90;99.90;;;;;;4989616;28;19933;-70
2021/12/29 14:03:37;;;;;;;;;;;9.90;99.90;;;;;;4985952;28;19933;-70
2021/12/29 14:06:05;;;;;;;;;;;9.90;99.90;;;;;;4987955;28;19932;-70
2021/12/29 14:08:32;;;;;;;;;;;10.00;99.90;;;;;;4990404;28;19944;-70
2021/12/29 14:11:02;;;;;;;;;;;10.00;99.90;;;;;;4990615;28;20510;-71
2021/12/29 14:13:30;;;;;;;;;;;10.00;99.90;;;;;;4986056;28;20028;-71
2021/12/29 14:16:02;;;;;;;;;;;10.10;99.90;;;;;;4990179;28;20035;-70
2021/12/29 14:18:28;;;;;;;;;;;10.20;99.90;;;;;;4990894;28;19988;-71
2021/12/29 14:20:56;;;;;;;;;;;10.20;99.90;;;;;;4992615;28;19937;-73
2021/12/29 14:23:27;;;;;;;;;;;10.20;99.90;;;;;;4997908;28;19933;-71
2021/12/29 14:25:54;;;;;;;;;;;10.30;99.90;;;;;;4991710;28;19937;-70
2021/12/29 14:28:22;;;;;;;;;;;10.30;99.90;;;;;;4991598;28;20035;-71
2021/12/29 14:31:00;;;;;;;;;;;10.40;99.90;;;;;;4991727;28;19936;-70
2021/12/29 14:33:35;;;;;;;;;;;10.40;99.90;;;;;;4991643;28;19945;-71
2021/12/29 14:36:04;;;;;;;;;;;10.50;99.90;;;;;;4991476;28;20431;-71
2021/12/29 14:38:31;;;;;;;;;;;10.50;99.90;;;;;;4995697;28;19941;-71